Latest Weather Observations for Kiama

IDN60801

Issued at 7:32 pm EDT Saturday 13 February 2016 (issued every 30 minutes, with the page automatically refreshed every 10 minutes)

About weather observations | Map of weather stations | Latest weather observations for NSW | Other Formats
Station Details ID: 068242 Name: KIAMA (BOMBO HEADLAND) Lat: -34.65 Lon: 150.86 Height: 15.5 m
Data from the previous 72 hours. | See also: Recent months at Kiama
Date/Time
EDT
Temp
°C
App
Temp
°C
Dew
Point
Rel
Hum
%
Delta-T
°C
Wind Press
QNH
hPa
Press
MSL
hPa
Rain
since 9 am
mm
Dir
 
Spd
km/h
Gust
km/h
Spd
kts
Gust
kts
13/07:30pm 23.9 22.7 20.0 79 2.5 NNE 26 35 14 19 - - 0.0
13/07:00pm 24.3 22.8 20.2 78 2.7 NNE 28 39 15 21 - - 0.0
13/06:30pm 24.5 23.1 19.6 74 3.2 NNE 26 37 14 20 - - 0.0
13/06:00pm 24.9 23.5 19.7 73 3.4 NNE 26 37 14 20 - - 0.0
13/05:30pm 25.2 24.0 20.0 73 3.4 NNE 26 39 14 21 - - 0.0
13/05:00pm 25.6 25.1 19.9 70 3.7 N 22 33 12 18 - - 0.0
13/04:30pm 25.6 24.6 19.7 70 3.8 N 24 37 13 20 - - 0.0
13/04:00pm 25.9 25.2 20.2 71 3.7 NNE 24 32 13 17 - - 0.0
13/03:30pm 26.4 26.9 20.0 68 4.2 N 17 24 9 13 - - 0.0
13/03:00pm 26.1 25.7 20.2 70 3.8 NNE 22 32 12 17 - - 0.0
13/02:30pm 26.2 25.9 20.3 70 3.9 NNE 22 32 12 17 - - 0.0
13/02:00pm 26.2 25.2 20.5 71 3.7 NNE 26 35 14 19 - - 0.0
13/01:30pm 25.6 23.3 20.2 72 3.5 NNE 32 43 17 23 - - 0.0
13/01:00pm 25.7 23.9 20.3 72 3.5 NNE 30 41 16 22 - - 0.0
13/12:30pm 25.6 23.6 19.9 70 3.7 NNE 30 41 16 22 - - 0.0
13/12:00pm 25.5 23.5 19.9 71 3.6 NNE 30 37 16 20 - - 0.0
13/11:30am 25.6 24.5 20.2 72 3.5 NNE 26 35 14 19 - - 0.0
13/11:00am 25.5 24.3 19.2 68 4.0 NNE 24 32 13 17 - - 0.0
13/10:30am 25.6 25.3 19.5 69 3.9 NNE 20 26 11 14 - - 0.0
13/10:00am 25.3 25.4 19.2 69 3.9 NNE 17 24 9 13 - - 0.0
13/09:30am 24.9 25.3 19.1 70 3.7 NNE 15 20 8 11 - - 0.0
13/09:00am 24.1 23.5 18.5 71 3.5 N 19 24 10 13 - - 0.0
13/08:30am 23.2 23.0 18.5 75 3.0 N 17 22 9 12 - - 0.0
13/08:00am 22.4 24.4 19.2 82 2.0 N 7 11 4 6 - - 0.0
13/07:30am 21.4 23.1 18.6 84 1.8 NNW 7 11 4 6 - - 0.0
13/07:00am 20.8 22.5 18.6 87 1.4 NNW 7 13 4 7 - - 0.0
13/06:30am 20.7 22.4 18.6 88 1.3 NNW 7 11 4 6 - - 0.0
13/06:00am 20.6 22.5 18.5 88 1.3 NNW 6 9 3 5 - - 0.0
13/05:30am 20.7 23.1 18.8 89 1.2 NNW 4 6 2 3 - - 0.0
13/05:00am 20.9 23.0 19.0 89 1.2 NNW 6 9 3 5 - - 0.0
13/04:30am 21.0 22.8 18.8 87 1.4 NNW 7 13 4 7 - - 0.0
13/04:00am 21.2 23.8 19.3 89 1.2 N 4 7 2 4 - - 0.0
13/03:30am 21.3 23.5 19.2 88 1.3 NNW 6 9 3 5 - - 0.0
13/03:00am 21.7 24.4 19.4 87 1.5 NNW 4 9 2 5 - - 0.0
13/02:30am 22.1 24.3 19.5 85 1.7 NNW 7 11 4 6 - - 0.0
13/02:00am 22.4 24.8 19.6 84 1.8 NNW 6 11 3 6 - - 0.0
13/01:30am 22.9 23.4 20.1 84 1.8 N 17 20 9 11 - - 0.0
13/01:00am 23.2 23.7 20.0 82 2.1 N 17 22 9 12 - - 0.0
13/12:30am 23.2 24.4 20.0 82 2.1 N 13 19 7 10 - - 0.0
13/12:00am 23.8 23.5 20.3 81 2.3 N 22 30 12 16 - - 0.0
 
Date/Time
EDT
Temp
°C
App
Temp
°C
Dew
Point
Rel
Hum
%
Delta-T
°C
Wind Press
QNH
hPa
Press
MSL
hPa
Rain
since 9 am
mm
Dir
 
Spd
km/h
Gust
km/h
Spd
kts
Gust
kts
12/11:30pm 23.7 23.3 20.2 81 2.3 NNE 22 32 12 17 - - 0.0
12/11:00pm 23.8 23.8 20.1 80 2.4 NNE 20 30 11 16 - - 0.0
12/10:30pm 23.9 23.4 20.0 79 2.5 NNE 22 28 12 15 - - 0.0
12/10:00pm 23.9 24.1 20.2 80 2.4 NNE 19 26 10 14 - - 0.0
12/09:30pm 23.9 24.1 20.2 80 2.4 NNE 19 26 10 14 - - 0.0
12/09:00pm 24.0 24.6 20.3 80 2.4 NNE 17 26 9 14 - - 0.0
12/08:30pm 24.1 24.9 20.6 81 2.3 NNE 17 24 9 13 - - 0.0
12/08:00pm 24.2 25.0 20.7 81 2.3 NNE 17 24 9 13 - - 0.0
12/07:30pm 24.1 25.2 20.4 80 2.4 NNE 15 20 8 11 - - 0.0
12/07:00pm 24.4 25.5 20.5 79 2.5 NNE 15 20 8 11 - - 0.0
12/06:30pm 24.7 24.9 20.2 76 2.9 NNE 19 28 10 15 - - 0.0
12/06:00pm 25.4 26.5 20.4 74 3.3 NNE 15 22 8 12 - - 0.0
12/05:30pm 25.7 26.6 20.0 71 3.7 NNE 15 22 8 12 - - 0.0
12/05:00pm 25.9 27.2 20.2 71 3.7 NNE 13 19 7 10 - - 0.0
12/04:30pm 26.1 26.6 20.0 69 4.0 NNE 17 20 9 11 - - 0.0
12/04:00pm 26.3 26.7 19.9 68 4.2 NNE 17 22 9 12 - - 0.0
12/03:30pm 27.0 27.8 20.6 68 4.2 NE 17 26 9 14 - - 0.0
12/03:00pm 26.8 27.2 20.6 69 4.1 NE 19 22 10 12 - - 0.0
12/02:30pm 27.1 29.1 20.7 68 4.2 NE 11 17 6 9 - - 0.0
12/02:00pm 27.3 29.4 20.9 68 4.2 ENE 11 17 6 9 - - 0.0
12/01:30pm 27.0 29.3 21.3 71 3.8 NE 11 17 6 9 - - 0.0
12/01:00pm 26.5 28.5 20.8 71 3.8 ENE 11 17 6 9 - - 0.0
12/12:30pm 26.5 28.5 20.8 71 3.8 ENE 11 15 6 8 - - 0.0
12/12:00pm 26.5 28.5 21.5 74 3.3 E 13 17 7 9 - - 0.0
12/11:30am 26.5 29.3 21.5 74 3.3 ENE 9 13 5 7 - - 0.0
12/11:00am 25.8 28.6 20.8 74 3.3 ENE 7 11 4 6 - - 0.0
12/10:30am 25.6 28.2 20.4 73 3.4 E 7 9 4 5 - - 0.0
12/10:00am 25.3 27.9 20.1 73 3.4 E 6 7 3 4 - - 0.0
12/09:30am 24.1 26.7 20.4 80 2.4 SE 7 9 4 5 - - 0.0
12/09:00am 23.3 26.9 19.7 80 2.3 CALM 0 0 0 0 - - 0.0
12/08:30am 23.0 26.8 20.1 84 1.9 CALM 0 0 0 0 - - 0.0
12/08:00am 21.9 25.5 19.8 88 1.3 CALM 0 2 0 1 - - 0.0
12/07:30am 21.1 23.8 19.4 90 1.1 SW 4 6 2 3 - - 0.0
12/07:00am 20.5 22.3 18.8 90 1.1 W 7 9 4 5 - - 0.0
12/06:30am 20.7 22.1 18.6 88 1.3 W 9 9 5 5 - - 0.0
12/06:00am 20.8 22.3 18.9 89 1.2 W 9 9 5 5 - - 0.0
12/05:30am 20.7 22.2 18.8 89 1.2 W 9 11 5 6 - - 0.0
12/05:00am 21.1 23.0 19.0 88 1.3 W 7 9 4 5 - - 0.0
12/04:30am 21.2 23.3 18.9 87 1.4 W 6 7 3 4 - - 0.0
12/04:00am 21.2 23.3 18.9 87 1.4 W 6 6 3 3 - - 0.0
12/03:30am 21.5 23.5 19.1 86 1.5 W 7 9 4 5 - - 0.0
12/03:00am 21.6 24.0 19.7 89 1.2 W 6 7 3 4 - - 0.0
12/02:30am 21.3 23.4 19.4 89 1.2 W 7 11 4 6 - - 0.0
12/02:00am 21.5 23.1 19.2 87 1.5 W 9 13 5 7 - - 0.0
12/01:30am 21.9 25.3 19.3 85 1.7 CALM 0 4 0 2 - - 0.0
12/01:00am 21.9 24.0 18.9 83 1.9 W 6 6 3 3 - - 0.0
12/12:30am 22.2 24.1 19.0 82 2.0 W 7 9 4 5 - - 0.0
12/12:00am 23.5 24.4 20.0 81 2.3 NNE 15 19 8 10 - - 0.0
 
Date/Time
EDT
Temp
°C
App
Temp
°C
Dew
Point
Rel
Hum
%
Delta-T
°C
Wind Press
QNH
hPa
Press
MSL
hPa
Rain
since 9 am
mm
Dir
 
Spd
km/h
Gust
km/h
Spd
kts
Gust
kts
11/11:30pm 23.2 25.8 20.0 82 2.1 N 6 11 3 6 - - 0.0
11/11:00pm 23.2 25.7 19.8 81 2.2 N 6 9 3 5 - - 0.0
11/10:30pm 23.2 25.4 19.6 80 2.3 N 7 15 4 8 - - 0.0
11/10:00pm 23.3 25.5 19.5 79 2.4 NNE 7 9 4 5 - - 0.0
11/09:30pm 23.4 25.5 19.3 78 2.6 N 7 9 4 5 - - 0.0
11/09:00pm 23.6 24.5 19.3 77 2.7 NNE 13 17 7 9 - - 0.0
11/08:30pm 23.9 25.6 19.4 76 2.9 NE 9 13 5 7 - - 0.0
11/08:00pm 23.9 25.2 19.2 75 3.0 NE 11 17 6 9 - - 0.0
11/07:30pm 23.9 24.5 18.5 72 3.4 NE 13 17 7 9 - - 0.0
11/07:00pm 23.9 23.6 18.3 71 3.5 NE 17 19 9 10 - - 0.0
11/06:30pm 24.2 25.6 18.6 71 3.5 NE 9 13 5 7 - - 0.0
11/06:00pm 24.4 25.1 17.9 67 4.1 NE 11 19 6 10 - - 0.0
11/05:30pm 25.0 26.2 19.1 70 3.8 NE 11 20 6 11 - - 0.0
11/05:00pm 24.8 25.6 19.0 70 3.7 NE 13 17 7 9 - - 0.0
11/04:30pm 26.0 27.3 20.1 70 3.8 ENE 13 17 7 9 - - 0.0
11/04:00pm 25.3 26.4 19.7 71 3.6 ENE 13 19 7 10 - - 0.0
11/03:30pm 27.1 28.8 20.9 69 4.1 ENE 13 17 7 9 - - 0.0
11/03:00pm 26.6 28.3 20.2 68 4.2 NE 11 17 6 9 - - 0.0
11/02:30pm 26.0 27.7 20.1 70 3.8 NE 11 19 6 10 - - 0.0
11/02:00pm 26.4 28.2 20.3 69 4.0 NE 11 17 6 9 - - 0.0
11/01:30pm 26.1 27.8 20.2 70 3.8 NE 11 17 6 9 - - 0.0
11/01:00pm 25.5 26.3 19.9 71 3.6 NE 15 19 8 10 - - 0.0
11/12:30pm 25.5 26.2 19.6 70 3.8 NE 15 20 8 11 - - 0.0
11/12:00pm 25.7 26.1 19.8 70 3.8 NE 17 19 9 10 - - 0.0
11/11:30am 26.1 27.0 19.2 65 4.4 NNE 13 19 7 10 - - 0.0
11/11:00am 26.0 27.3 19.2 66 4.4 NNE 11 17 6 9 - - 0.0
11/10:30am 25.9 27.1 19.1 66 4.4 NNE 11 15 6 8 - - 0.0
11/10:00am 25.4 27.4 19.1 68 4.0 NE 7 11 4 6 - - 0.0
11/09:30am 24.5 25.8 18.4 69 3.9 N 9 15 5 8 - - 0.0
11/09:00am 23.9 25.4 18.8 73 3.2 NNW 9 13 5 7 - - 0.0
11/08:30am 22.9 24.5 18.2 75 2.9 WNW 7 13 4 7 - - 0.0
11/08:00am 21.6 23.1 17.6 78 2.5 WNW 6 9 3 5 - - 0.0
11/07:30am 20.7 21.7 17.7 83 1.8 W 9 11 5 6 - - 0.0
11/07:00am 19.7 20.1 17.3 86 1.5 W 11 13 6 7 - - 0.0
11/06:30am 19.3 20.0 17.1 87 1.3 W 9 11 5 6 - - 0.0
11/06:00am 19.6 20.4 17.2 86 1.5 WNW 9 11 5 6 - - 0.0
11/05:30am 19.6 20.1 17.4 87 1.3 W 11 11 6 6 - - 0.0
11/05:00am 19.7 20.1 17.3 86 1.5 WNW 11 11 6 6 - - 0.0
11/04:30am 20.0 20.9 17.6 86 1.5 W 9 9 5 5 - - 0.0
11/04:00am 20.1 21.1 17.7 86 1.5 W 9 11 5 6 - - 0.0
11/03:30am 20.2 21.6 17.8 86 1.5 WNW 7 9 4 5 - - 0.0
11/03:00am 20.2 21.6 17.8 86 1.5 WNW 7 9 4 5 - - 0.0
11/02:30am 20.3 21.4 18.1 87 1.4 WNW 9 9 5 5 - - 0.0
11/02:00am 20.6 21.8 18.2 86 1.5 WNW 9 11 5 6 - - 0.0
11/01:30am 21.4 23.0 18.2 82 2.0 NNW 7 9 4 5 - - 0.0
11/01:00am 21.8 23.3 18.0 79 2.4 NNW 7 9 4 5 - - 0.0
11/12:30am 22.8 22.5 18.3 76 2.8 N 17 24 9 13 - - 0.0
11/12:00am 23.0 22.7 18.3 75 2.9 N 17 24 9 13 - - 0.0
 
Date/Time
EDT
Temp
°C
App
Temp
°C
Dew
Point
Rel
Hum
%
Delta-T
°C
Wind Press
QNH
hPa
Press
MSL
hPa
Rain
since 9 am
mm
Dir
 
Spd
km/h
Gust
km/h
Spd
kts
Gust
kts
10/11:30pm 23.1 22.0 18.6 76 2.8 N 22 33 12 18 - - 0.0
10/11:00pm 23.1 21.5 19.3 79 2.4 N 26 35 14 19 - - 0.0
10/10:30pm 23.1 22.5 19.7 81 2.2 NNE 22 35 12 19 - - 0.0
10/10:00pm 23.3 21.5 19.5 79 2.4 NNE 28 37 15 20 - - 0.0
10/09:30pm 23.4 21.7 19.8 80 2.3 NNE 28 39 15 21 - - 0.0
10/09:00pm 23.5 21.6 19.4 78 2.6 NNE 28 41 15 22 - - 0.0
10/08:30pm 23.5 21.6 19.4 78 2.6 NNE 28 41 15 22 - - 0.0
10/08:00pm 23.5 22.0 19.4 78 2.6 NNE 26 35 14 19 - - 0.0

Other Formats:

Comma delimited format used in spreadsheet applications
http://www.bom.gov.au/fwo/IDN60801/IDN60801.95749.axf

JavaScript Object Notation format (JSON) in row-major order
http://www.bom.gov.au/fwo/IDN60801/IDN60801.95749.json